createdAt,value
2023-02-12T00:02:05.301Z,7.63
2023-02-12T00:04:31.973Z,6.20
2023-02-12T00:06:58.564Z,9.97
2023-02-12T00:09:25.519Z,3.27
2023-02-12T00:11:52.281Z,5.67
2023-02-12T00:14:19.050Z,5.73
2023-02-12T00:16:45.706Z,6.57
2023-02-12T00:19:12.418Z,3.97
2023-02-12T00:21:39.151Z,6.37
2023-02-12T00:24:05.968Z,3.10
2023-02-12T00:26:32.775Z,5.93
2023-02-12T00:28:59.376Z,7.73
2023-02-12T00:31:28.814Z,4.20
2023-02-12T00:33:55.761Z,3.47
2023-02-12T00:36:25.166Z,7.47
2023-02-12T00:38:53.712Z,11.77
2023-02-12T00:41:21.094Z,4.33
2023-02-12T00:43:48.769Z,6.33
2023-02-12T00:46:15.867Z,4.10
2023-02-12T00:48:42.915Z,4.67
2023-02-12T00:51:09.677Z,3.77
2023-02-12T00:53:36.419Z,5.83
2023-02-12T00:56:03.096Z,7.13
2023-02-12T00:58:29.707Z,3.93
2023-02-12T01:00:56.378Z,6.60
2023-02-12T01:03:23.894Z,7.97
2023-02-12T01:05:50.621Z,4.67
2023-02-12T01:08:17.594Z,2.77
2023-02-12T01:10:44.855Z,3.27
2023-02-12T01:13:15.355Z,4.73
2023-02-12T01:15:42.412Z,6.83
2023-02-12T01:18:09.242Z,3.87
2023-02-12T01:20:35.903Z,6.43
2023-02-12T01:23:03.385Z,5.60
2023-02-12T01:25:30.018Z,2.40
2023-02-12T01:27:56.656Z,5.57
2023-02-12T01:30:24.325Z,4.13
2023-02-12T01:32:51.140Z,3.97
2023-02-12T01:35:17.808Z,4.47
2023-02-12T01:37:44.468Z,4.37
2023-02-12T01:40:14.837Z,3.60
2023-02-12T01:42:41.436Z,5.07
2023-02-12T01:45:14.058Z,4.27
2023-02-12T01:47:42.405Z,4.83
2023-02-12T01:50:13.300Z,7.47
2023-02-12T01:52:43.734Z,3.40
2023-02-12T01:55:11.699Z,4.50
2023-02-12T01:57:42.761Z,6.50
2023-02-12T02:00:17.149Z,5.70
2023-02-12T02:02:47.263Z,3.20
2023-02-12T02:05:18.401Z,12.33
2023-02-12T02:07:45.664Z,5.60
2023-02-12T02:10:12.450Z,5.33
2023-02-12T02:12:58.383Z,5.23
2023-02-12T02:15:30.569Z,7.07
2023-02-12T02:18:09.191Z,4.10
2023-02-12T02:20:59.998Z,4.20
2023-02-12T02:23:59.315Z,5.30
2023-02-12T02:26:54.981Z,5.10
2023-02-12T02:29:27.285Z,3.37
2023-02-12T02:32:32.720Z,2.53
2023-02-12T02:35:09.596Z,3.33
2023-02-12T02:37:57.266Z,3.37
2023-02-12T02:40:27.250Z,3.60
2023-02-12T02:43:05.542Z,8.37
2023-02-12T02:45:43.646Z,10.17
2023-02-12T02:48:25.069Z,4.63
2023-02-12T02:51:24.602Z,3.40
2023-02-12T02:54:01.180Z,5.37
2023-02-12T02:56:29.666Z,6.57
2023-02-12T02:59:03.189Z,5.27
2023-02-12T03:01:38.959Z,7.73
2023-02-12T03:04:07.901Z,4.67
2023-02-12T03:06:47.139Z,6.50
2023-02-12T03:09:22.647Z,11.17
2023-02-12T03:11:50.980Z,5.33
2023-02-12T03:14:38.407Z,3.73
2023-02-12T03:17:15.694Z,5.63
2023-02-12T03:19:46.889Z,4.10
2023-02-12T03:22:22.243Z,10.40
2023-02-12T03:24:56.010Z,5.97
2023-02-12T03:27:33.246Z,7.07
2023-02-12T03:30:00.987Z,4.30
2023-02-12T03:32:52.026Z,4.43
2023-02-12T03:35:24.758Z,8.07
2023-02-12T03:38:39.762Z,7.37
2023-02-12T03:41:11.989Z,9.70
2023-02-12T03:44:04.095Z,5.87
2023-02-12T03:46:43.614Z,9.00
2023-02-12T03:49:29.266Z,4.97
2023-02-12T03:51:56.262Z,6.90
2023-02-12T03:54:23.199Z,5.00
2023-02-12T03:56:52.584Z,5.33
2023-02-12T03:59:21.364Z,4.90
2023-02-12T04:01:50.022Z,6.87
2023-02-12T04:04:17.543Z,3.53
2023-02-12T04:06:48.008Z,7.33
2023-02-12T04:09:15.436Z,7.80
2023-02-12T04:11:59.260Z,4.70
2023-02-12T04:14:56.902Z,4.27
2023-02-12T04:17:54.173Z,4.87
2023-02-12T04:20:41.416Z,6.13
2023-02-12T04:23:32.800Z,6.47
2023-02-12T04:26:22.253Z,6.87
2023-02-12T04:28:58.447Z,7.50
2023-02-12T04:31:44.982Z,4.30
2023-02-12T04:34:31.591Z,5.30
2023-02-12T04:37:05.673Z,5.00
2023-02-12T04:39:37.053Z,9.93
2023-02-12T04:42:04.156Z,9.37
2023-02-12T04:44:37.686Z,7.33
2023-02-12T04:47:04.628Z,6.67
2023-02-12T04:49:31.794Z,8.50
2023-02-12T04:51:58.584Z,7.90
2023-02-12T04:54:25.574Z,4.60
2023-02-12T04:56:52.230Z,8.27
2023-02-12T04:59:18.873Z,9.23
2023-02-12T05:01:45.691Z,5.77
2023-02-12T05:04:14.846Z,7.03
2023-02-12T05:06:42.707Z,7.43
2023-02-12T05:09:13.356Z,5.80
2023-02-12T05:11:40.031Z,14.87
2023-02-12T05:14:06.703Z,9.60
2023-02-12T05:16:33.288Z,4.20
2023-02-12T05:18:59.942Z,9.10
2023-02-12T05:21:26.618Z,9.20
2023-02-12T05:23:53.298Z,4.00
2023-02-12T05:26:22.199Z,9.57
2023-02-12T05:28:48.964Z,9.73
2023-02-12T05:31:21.289Z,6.20
2023-02-12T05:33:49.964Z,6.93
2023-02-12T05:36:22.545Z,5.70
2023-02-12T05:38:53.243Z,8.57
2023-02-12T05:41:22.378Z,6.97
2023-02-12T05:43:50.218Z,4.00
2023-02-12T05:46:19.341Z,5.90
2023-02-12T05:48:48.350Z,5.17
2023-02-12T05:51:21.967Z,8.50
2023-02-12T05:53:50.165Z,6.23
2023-02-12T05:56:20.220Z,5.60
2023-02-12T05:58:51.765Z,9.13
2023-02-12T06:01:22.331Z,7.00
2023-02-12T06:03:48.992Z,5.70
2023-02-12T06:06:15.646Z,5.93
2023-02-12T06:08:42.950Z,4.40
2023-02-12T06:11:14.061Z,6.30
2023-02-12T06:13:41.018Z,5.63
2023-02-12T06:16:08.341Z,6.23
2023-02-12T06:18:36.371Z,9.47
2023-02-12T06:21:04.409Z,6.37
2023-02-12T06:23:31.053Z,6.93
2023-02-12T06:25:58.171Z,7.80
2023-02-12T06:28:25.113Z,5.17
2023-02-12T06:30:52.063Z,5.13
2023-02-12T06:33:18.718Z,5.23
2023-02-12T06:35:45.392Z,4.17
2023-02-12T06:38:12.450Z,7.60
2023-02-12T06:40:39.045Z,5.50
2023-02-12T06:43:05.678Z,7.30
2023-02-12T06:45:33.563Z,8.87
2023-02-12T06:48:00.234Z,3.70
2023-02-12T06:50:27.678Z,7.90
2023-02-12T06:52:54.360Z,6.67
2023-02-12T06:55:21.183Z,6.83
2023-02-12T06:57:47.840Z,5.30
2023-02-12T07:00:14.719Z,5.20
2023-02-12T07:02:41.733Z,9.57
2023-02-12T07:05:08.571Z,10.57
2023-02-12T07:07:35.265Z,4.90
2023-02-12T07:10:02.028Z,11.20
2023-02-12T07:12:28.687Z,5.37
2023-02-12T07:14:55.320Z,6.83
2023-02-12T07:17:22.004Z,6.23
2023-02-12T07:19:48.586Z,8.33
2023-02-12T07:22:15.210Z,4.43
2023-02-12T07:24:41.925Z,6.30
2023-02-12T07:27:08.566Z,6.83
2023-02-12T07:29:35.293Z,10.83
2023-02-12T07:32:01.942Z,8.87
2023-02-12T07:34:28.609Z,6.73
2023-02-12T07:36:55.185Z,8.83
2023-02-12T07:39:22.053Z,9.20
2023-02-12T07:41:48.729Z,8.53
2023-02-12T07:44:15.387Z,6.33
2023-02-12T07:46:48.602Z,5.30
2023-02-12T07:49:18.609Z,4.63
2023-02-12T07:51:46.170Z,12.07
2023-02-12T07:54:13.393Z,10.27
2023-02-12T07:56:41.256Z,9.97
2023-02-12T07:59:12.630Z,8.50
2023-02-12T08:01:42.063Z,9.60
2023-02-12T08:04:13.390Z,7.47
2023-02-12T08:06:51.918Z,10.57
2023-02-12T08:09:21.742Z,9.63
2023-02-12T08:11:48.790Z,10.80
2023-02-12T08:14:18.709Z,11.63
2023-02-12T08:16:46.629Z,10.43
2023-02-12T08:19:20.978Z,8.33
2023-02-12T08:21:50.769Z,11.53
2023-02-12T08:24:17.455Z,9.90
2023-02-12T08:26:44.491Z,10.87
2023-02-12T08:29:14.412Z,15.30
2023-02-12T08:31:44.273Z,9.90
2023-02-12T08:34:22.440Z,7.83
2023-02-12T08:36:50.665Z,10.30
2023-02-12T08:39:18.342Z,6.93
2023-02-12T08:41:45.352Z,10.97
2023-02-12T08:44:12.420Z,5.57
2023-02-12T08:46:44.126Z,5.57
2023-02-12T08:49:16.428Z,7.63
2023-02-12T08:51:48.891Z,10.60
2023-02-12T08:54:21.416Z,6.70
2023-02-12T08:56:48.133Z,11.03
2023-02-12T08:59:16.091Z,16.27
2023-02-12T09:01:43.998Z,6.40
2023-02-12T09:04:23.307Z,9.93
2023-02-12T09:06:50.824Z,7.13
2023-02-12T09:09:17.973Z,12.27
2023-02-12T09:11:44.996Z,8.00
2023-02-12T09:14:15.675Z,7.67
2023-02-12T09:16:43.813Z,10.57
2023-02-12T09:19:13.740Z,10.00
2023-02-12T09:21:40.434Z,7.93
2023-02-12T09:24:07.844Z,5.80
2023-02-12T09:26:34.512Z,8.50
2023-02-12T09:29:04.389Z,14.60
2023-02-12T09:31:33.078Z,7.70
2023-02-12T09:34:05.021Z,7.97
2023-02-12T09:36:32.941Z,7.77
2023-02-12T09:39:00.482Z,9.23
2023-02-12T09:41:42.716Z,13.40
2023-02-12T09:44:38.353Z,9.33
2023-02-12T09:47:27.220Z,14.60
2023-02-12T09:50:00.153Z,12.70
2023-02-12T09:52:29.018Z,15.47
2023-02-12T09:54:56.900Z,12.20
2023-02-12T09:57:31.567Z,9.23
2023-02-12T10:00:03.949Z,9.13
2023-02-12T10:02:30.759Z,16.40
2023-02-12T10:05:01.843Z,7.77
2023-02-12T10:07:44.264Z,14.20
2023-02-12T10:10:38.470Z,11.80
2023-02-12T10:13:06.542Z,8.67
2023-02-12T10:15:39.137Z,14.07
2023-02-12T10:18:56.511Z,9.80
2023-02-12T10:21:23.026Z,8.57
2023-02-12T10:23:49.590Z,13.83
2023-02-12T10:26:25.896Z,13.73
2023-02-12T10:28:53.756Z,21.80
2023-02-12T10:31:32.153Z,11.83
2023-02-12T10:33:59.056Z,11.43
2023-02-12T10:36:41.761Z,15.77
2023-02-12T10:39:12.933Z,9.43
2023-02-12T10:41:55.071Z,12.03
2023-02-12T10:44:21.820Z,18.10
2023-02-12T10:46:48.534Z,15.57
2023-02-12T10:49:17.899Z,20.03
2023-02-12T10:51:56.472Z,14.43
2023-02-12T10:54:49.579Z,12.13
2023-02-12T10:57:26.709Z,14.40
2023-02-12T10:59:57.447Z,16.23
2023-02-12T11:02:33.433Z,21.80
2023-02-12T11:05:15.770Z,20.90
2023-02-12T11:07:51.028Z,12.63
2023-02-12T11:10:41.806Z,20.00
2023-02-12T11:13:25.559Z,17.37
2023-02-12T11:15:52.574Z,19.03
2023-02-12T11:18:26.250Z,28.20
2023-02-12T11:20:55.042Z,24.60
2023-02-12T11:23:38.259Z,20.13
2023-02-12T11:26:19.728Z,27.07
2023-02-12T11:29:17.198Z,15.57
2023-02-12T11:32:01.050Z,20.43
2023-02-12T11:34:29.822Z,15.60
2023-02-12T11:36:57.582Z,29.20
2023-02-12T11:39:28.019Z,16.77
2023-02-12T11:42:20.093Z,15.47
2023-02-12T11:44:57.361Z,11.70
2023-02-12T11:47:30.722Z,9.97
2023-02-12T11:50:00.467Z,10.53
2023-02-12T11:52:31.348Z,19.13
2023-02-12T11:55:02.675Z,10.17
2023-02-12T11:57:48.444Z,12.73
2023-02-12T12:00:25.810Z,14.70
2023-02-12T12:03:42.146Z,15.03
2023-02-12T12:06:19.923Z,11.27
2023-02-12T12:09:13.165Z,12.57
2023-02-12T12:11:59.179Z,17.47
2023-02-12T12:15:03.644Z,10.27
2023-02-12T12:18:15.105Z,11.87
2023-02-12T12:20:47.705Z,15.53
2023-02-12T12:23:21.837Z,20.40
2023-02-12T12:25:52.858Z,23.97
2023-02-12T12:28:45.552Z,14.27
2023-02-12T12:31:40.370Z,15.13
2023-02-12T12:34:13.620Z,17.47
2023-02-12T12:36:59.643Z,15.30
2023-02-12T12:39:34.999Z,10.67
2023-02-12T12:42:31.443Z,16.40
2023-02-12T12:44:57.964Z,13.57
2023-02-12T12:47:44.548Z,12.27
2023-02-12T12:50:32.190Z,16.60
2023-02-12T12:53:31.878Z,14.47
2023-02-12T12:56:11.030Z,14.37
2023-02-12T12:59:06.521Z,13.20
2023-02-12T13:01:42.275Z,18.60
2023-02-12T13:04:34.804Z,16.87
2023-02-12T13:07:10.313Z,19.23
2023-02-12T13:10:06.929Z,13.67
2023-02-12T13:12:37.732Z,13.37
2023-02-12T13:15:10.218Z,19.13
2023-02-12T13:17:41.464Z,12.27
2023-02-12T13:20:34.625Z,17.00
2023-02-12T13:23:04.191Z,24.53
2023-02-12T13:25:59.986Z,18.67
2023-02-12T13:28:40.809Z,15.73
2023-02-12T13:31:32.477Z,23.33
2023-02-12T13:34:04.447Z,17.93
2023-02-12T13:36:32.501Z,16.97
2023-02-12T13:39:15.255Z,21.43
2023-02-12T13:41:52.368Z,16.37
2023-02-12T13:44:32.953Z,22.40
2023-02-12T13:47:08.354Z,18.67
2023-02-12T13:49:49.852Z,17.43
2023-02-12T13:52:43.607Z,13.87
2023-02-12T13:55:35.049Z,10.90
2023-02-12T13:58:32.710Z,17.17
2023-02-12T14:01:04.775Z,16.00
2023-02-12T14:03:32.533Z,10.47
2023-02-12T14:13:27.929Z,14.03
2023-02-12T14:15:59.258Z,11.83
2023-02-12T14:18:31.636Z,15.47
2023-02-12T14:21:13.430Z,13.07
2023-02-12T14:23:45.932Z,14.03
2023-02-12T14:26:14.670Z,15.40
2023-02-12T14:28:45.427Z,17.10
2023-02-12T14:31:18.809Z,24.23
2023-02-12T14:33:50.818Z,18.67
2023-02-12T14:36:32.593Z,14.73
2023-02-12T14:39:22.047Z,14.87
2023-02-12T14:41:51.897Z,14.63
2023-02-12T14:44:18.473Z,17.77
2023-02-12T14:46:51.818Z,18.37
2023-02-12T14:49:28.716Z,15.33
2023-02-12T14:52:13.492Z,14.03
2023-02-12T14:54:51.457Z,17.53
2023-02-12T14:57:28.450Z,16.10
2023-02-12T14:59:59.067Z,17.20
2023-02-12T15:02:27.920Z,16.17
2023-02-12T15:05:06.836Z,15.07
2023-02-12T15:07:41.191Z,10.93
2023-02-12T15:10:15.482Z,20.40
2023-02-12T15:13:09.616Z,13.30
2023-02-12T15:15:45.598Z,20.27
2023-02-12T15:18:15.898Z,17.87
2023-02-12T15:20:55.209Z,21.30
2023-02-12T15:23:33.977Z,20.67
2023-02-12T15:26:01.200Z,29.90
2023-02-12T15:28:35.086Z,20.13
2023-02-12T15:31:04.866Z,20.70
2023-02-12T15:33:34.448Z,20.70
2023-02-12T15:36:03.182Z,16.90
2023-02-12T15:38:36.962Z,23.93
2023-02-12T15:41:05.001Z,25.00
2023-02-12T15:43:36.801Z,18.23
2023-02-12T15:46:06.373Z,20.07
2023-02-12T15:48:35.483Z,19.77
2023-02-12T15:51:30.163Z,20.97
2023-02-12T15:53:59.748Z,17.67
2023-02-12T15:56:27.920Z,19.67
2023-02-12T15:58:57.650Z,21.97
2023-02-12T16:01:35.518Z,17.97
2023-02-12T16:04:08.147Z,24.63
2023-02-12T16:06:36.840Z,21.93
2023-02-12T16:09:05.760Z,17.80
2023-02-12T16:11:33.654Z,24.27
2023-02-12T16:14:07.803Z,19.80
2023-02-12T16:16:46.134Z,21.07
2023-02-12T16:19:30.367Z,25.73
2023-02-12T16:22:11.918Z,29.23
2023-02-12T16:24:47.217Z,21.30
2023-02-12T16:27:34.679Z,26.10
2023-02-12T16:30:05.406Z,23.73
2023-02-12T16:32:41.250Z,27.20
2023-02-12T16:35:10.522Z,20.83
2023-02-12T16:37:37.075Z,25.33
2023-02-12T16:40:12.964Z,22.53
2023-02-12T16:42:55.465Z,27.83
2023-02-12T16:45:28.159Z,27.20
2023-02-12T16:48:24.474Z,30.07
2023-02-12T16:50:56.870Z,23.10
2023-02-12T16:53:43.770Z,27.87
2023-02-12T16:56:15.855Z,19.93
2023-02-12T16:58:43.057Z,26.23
2023-02-12T17:01:09.879Z,34.83
2023-02-12T17:03:37.620Z,19.90
2023-02-12T17:06:04.456Z,30.53
2023-02-12T17:08:31.111Z,32.53
2023-02-12T17:10:57.794Z,31.70
2023-02-12T17:13:24.366Z,37.27
2023-02-12T17:15:55.559Z,27.33
2023-02-12T17:18:25.006Z,21.90
2023-02-12T17:20:56.414Z,17.13
2023-02-12T17:23:24.162Z,31.97
2023-02-12T17:25:50.782Z,34.07
2023-02-12T17:28:17.508Z,27.07
2023-02-12T17:30:44.550Z,43.47
2023-02-12T17:33:11.560Z,39.00
2023-02-12T17:35:39.392Z,46.53
2023-02-12T17:38:07.469Z,34.67
2023-02-12T17:40:38.198Z,38.97
2023-02-12T17:43:06.617Z,28.33
2023-02-12T17:45:33.681Z,33.80
2023-02-12T17:48:00.426Z,34.23
2023-02-12T17:50:27.474Z,28.00
2023-02-12T17:52:54.126Z,27.30
2023-02-12T17:55:20.869Z,33.60
2023-02-12T17:57:56.407Z,30.77
2023-02-12T18:00:24.041Z,31.23
2023-02-12T18:02:52.072Z,32.63
2023-02-12T18:05:18.787Z,29.70
2023-02-12T18:07:45.350Z,27.70
2023-02-12T18:10:12.526Z,22.10
2023-02-12T18:12:39.902Z,28.27
2023-02-12T18:15:08.427Z,29.17
2023-02-12T18:17:35.960Z,28.80
2023-02-12T18:20:03.319Z,37.13
2023-02-12T18:22:30.095Z,36.13
2023-02-12T18:24:57.696Z,30.17
2023-02-12T18:27:24.414Z,30.63
2023-02-12T18:29:51.042Z,34.77
2023-02-12T18:32:17.703Z,32.43
2023-02-12T18:34:44.930Z,30.07
2023-02-12T18:37:13.456Z,32.43
2023-02-12T18:39:40.134Z,41.50
2023-02-12T18:42:07.423Z,43.50
2023-02-12T18:44:35.515Z,35.63
2023-02-12T18:47:02.221Z,36.47
2023-02-12T18:49:28.836Z,32.70
2023-02-12T18:51:55.485Z,25.47
2023-02-12T18:54:22.698Z,26.03
2023-02-12T18:56:52.400Z,32.30
2023-02-12T18:59:20.059Z,29.00
2023-02-12T19:01:48.634Z,28.47
2023-02-12T19:04:16.241Z,23.03
2023-02-12T19:06:47.384Z,25.80
2023-02-12T19:09:16.793Z,26.30
2023-02-12T19:11:46.527Z,26.10
2023-02-12T19:14:14.628Z,29.53
2023-02-12T19:16:42.180Z,27.80
2023-02-12T19:19:09.046Z,26.53
2023-02-12T19:21:35.796Z,30.00
2023-02-12T19:24:04.827Z,35.77
2023-02-12T19:26:33.570Z,36.73
2023-02-12T19:29:01.751Z,27.20
2023-02-12T19:31:34.733Z,28.57
2023-02-12T19:34:17.985Z,23.57
2023-02-12T19:36:44.744Z,26.73
2023-02-12T19:39:15.075Z,18.50
2023-02-12T19:41:41.841Z,19.47
2023-02-12T19:44:19.065Z,19.10
2023-02-12T19:46:46.890Z,21.20
2023-02-12T19:49:17.403Z,22.73
2023-02-12T19:51:44.555Z,28.33
2023-02-12T19:54:12.989Z,36.63
2023-02-12T19:56:39.874Z,25.60
2023-02-12T19:59:06.895Z,31.63
2023-02-12T20:01:34.259Z,21.70
2023-02-12T20:04:01.620Z,28.77
2023-02-12T20:06:31.972Z,27.47
2023-02-12T20:08:58.767Z,28.43
2023-02-12T20:11:28.889Z,31.97
2023-02-12T20:13:56.327Z,26.67
2023-02-12T20:16:26.220Z,21.90
2023-02-12T20:18:54.981Z,22.27
2023-02-12T20:21:25.452Z,32.83
2023-02-12T20:23:52.328Z,22.77
2023-02-12T20:26:22.670Z,24.03
2023-02-12T20:28:50.125Z,29.63
2023-02-12T20:31:22.922Z,29.50
2023-02-12T20:34:03.509Z,26.13
2023-02-12T20:36:34.884Z,24.37
2023-02-12T20:39:01.833Z,25.97
2023-02-12T20:41:28.927Z,28.13
2023-02-12T20:43:56.226Z,22.60
2023-02-12T20:46:24.988Z,26.63
2023-02-12T20:48:52.504Z,21.43
2023-02-12T20:51:22.289Z,22.13
2023-02-12T20:53:50.060Z,22.77
2023-02-12T20:56:19.779Z,28.57
2023-02-12T20:58:47.385Z,26.07
2023-02-12T21:01:21.185Z,21.63
2023-02-12T21:03:49.541Z,24.37
2023-02-12T21:06:16.173Z,18.30
2023-02-12T21:08:43.173Z,27.93
2023-02-12T21:11:16.754Z,21.33
2023-02-12T21:13:58.778Z,22.57
2023-02-12T21:16:30.827Z,23.50
2023-02-12T21:18:57.814Z,20.37
2023-02-12T21:21:32.676Z,23.37
2023-02-12T21:24:00.373Z,23.43
2023-02-12T21:26:30.294Z,24.40
2023-02-12T21:28:59.220Z,22.77
2023-02-12T21:31:28.984Z,20.47
2023-02-12T21:33:57.691Z,24.77
2023-02-12T21:36:45.375Z,19.90
2023-02-12T21:39:24.405Z,27.17
2023-02-12T21:41:53.755Z,22.03
2023-02-12T21:44:21.636Z,18.37
2023-02-12T21:46:48.264Z,18.80
2023-02-12T21:49:23.217Z,24.37
2023-02-12T21:51:50.512Z,29.20
2023-02-12T21:54:17.212Z,25.30
2023-02-12T21:56:45.892Z,21.63
2023-02-12T21:59:12.936Z,29.03
2023-02-12T22:01:43.752Z,27.57
2023-02-12T22:04:10.799Z,28.23
2023-02-12T22:06:41.852Z,22.43
2023-02-12T22:09:10.665Z,23.90
2023-02-12T22:11:38.440Z,19.30
2023-02-12T22:14:07.202Z,23.43
2023-02-12T22:16:34.991Z,22.53
2023-02-12T22:19:02.650Z,21.30
2023-02-12T22:21:32.155Z,17.50
2023-02-12T22:24:05.543Z,22.40
2023-02-12T22:26:32.964Z,28.07
2023-02-12T22:29:04.590Z,24.40
2023-02-12T22:31:33.614Z,26.57
2023-02-12T22:34:04.820Z,23.33
2023-02-12T22:36:33.595Z,20.23
2023-02-12T22:39:01.140Z,20.77
2023-02-12T22:41:28.636Z,26.90
2023-02-12T22:43:58.373Z,22.20
2023-02-12T22:46:25.279Z,27.00
2023-02-12T22:48:51.915Z,19.53
2023-02-12T22:51:20.817Z,31.00
2023-02-12T22:53:47.845Z,30.53
2023-02-12T22:56:15.365Z,28.90
2023-02-12T22:58:42.372Z,27.43
2023-02-12T23:01:11.840Z,25.20
2023-02-12T23:03:39.053Z,28.87
2023-02-12T23:06:08.834Z,26.40
2023-02-12T23:08:35.648Z,24.30
2023-02-12T23:11:02.937Z,24.87
2023-02-12T23:13:30.368Z,26.93
2023-02-12T23:15:58.096Z,19.40
2023-02-12T23:18:25.918Z,25.10
2023-02-12T23:20:53.130Z,26.40
2023-02-12T23:23:21.304Z,21.57
2023-02-12T23:25:48.949Z,23.30
2023-02-12T23:28:16.136Z,23.33
2023-02-12T23:30:43.091Z,22.23
2023-02-12T23:33:10.067Z,28.93
2023-02-12T23:35:36.681Z,22.90
2023-02-12T23:38:04.462Z,26.03
2023-02-12T23:40:34.163Z,30.17
2023-02-12T23:43:01.920Z,29.93
2023-02-12T23:45:28.956Z,24.80
2023-02-12T23:47:55.911Z,26.80
2023-02-12T23:50:23.169Z,25.23
2023-02-12T23:52:50.083Z,36.83
2023-02-12T23:55:18.828Z,27.13
2023-02-12T23:57:45.981Z,21.73
